Time;durP1;ratioP1;P1;durP2;ratioP2;P2;SDS_P1;SDS_P2;PMS_P1;PMS_P2;Temp;Humidity;BMP_temperature;BMP_pressure;BME280_temperature;BME280_humidity;BME280_pressure;Samples;Min_cycle;Max_cycle;Signal;HPM_P1;HPM_P2
2022/08/19 00:01:45;;;;;;;9.38;3.30;;;;;;;;;;5035194;28;20041;-79
2022/08/19 00:04:11;;;;;;;7.57;3.53;;;;;;;;;;5043078;28;20108;-79
2022/08/19 00:06:37;;;;;;;5.90;3.00;;;;;;;;;;5033039;28;20029;-76
2022/08/19 00:09:02;;;;;;;6.05;3.15;;;;;;;;;;5034149;28;20740;-77
2022/08/19 00:11:28;;;;;;;10.32;3.60;;;;;;;;;;5034470;28;20179;-79
2022/08/19 00:13:54;;;;;;;7.13;3.42;;;;;;;;;;5034339;28;20045;-79
2022/08/19 00:16:20;;;;;;;6.43;3.60;;;;;;;;;;5037810;28;20036;-77
2022/08/19 00:18:47;;;;;;;5.50;3.17;;;;;;;;;;5040005;28;20492;-80
2022/08/19 00:21:14;;;;;;;10.32;3.20;;;;;;;;;;5011592;28;20438;-79
2022/08/19 00:23:40;;;;;;;6.63;3.33;;;;;;;;;;5022485;28;20167;-78
2022/08/19 00:26:05;;;;;;;7.30;3.30;;;;;;;;;;5045891;28;20032;-77
2022/08/19 00:28:31;;;;;;;8.77;3.38;;;;;;;;;;5040019;28;20025;-77
2022/08/19 00:30:57;;;;;;;6.22;3.60;;;;;;;;;;5041582;28;20029;-77
2022/08/19 00:33:22;;;;;;;10.02;3.20;;;;;;;;;;5031980;28;20033;-79
2022/08/19 00:35:48;;;;;;;5.28;3.40;;;;;;;;;;5033154;28;20071;-77
2022/08/19 00:38:13;;;;;;;9.38;3.20;;;;;;;;;;5033469;28;20084;-77
2022/08/19 00:40:39;;;;;;;5.20;3.17;;;;;;;;;;5035366;28;20539;-78
2022/08/19 00:43:08;;;;;;;9.43;3.22;;;;;;;;;;5040987;28;20168;-78
2022/08/19 00:45:33;;;;;;;7.00;3.88;;;;;;;;;;5044787;28;20059;-78
2022/08/19 00:48:03;;;;;;;8.27;3.22;;;;;;;;;;5040156;28;20025;-78
2022/08/19 00:50:29;;;;;;;6.38;3.00;;;;;;;;;;5037688;28;20400;-78
2022/08/19 00:52:55;;;;;;;6.45;3.30;;;;;;;;;;5007521;28;20021;-78
2022/08/19 00:55:21;;;;;;;6.93;3.33;;;;;;;;;;5037107;28;20115;-77
2022/08/19 00:57:48;;;;;;;8.50;3.47;;;;;;;;;;5042503;28;20036;-79
2022/08/19 01:00:15;;;;;;;8.93;3.60;;;;;;;;;;5036726;28;20036;-79
2022/08/19 01:02:41;;;;;;;5.57;3.00;;;;;;;;;;5052797;28;20531;-78
2022/08/19 01:05:31;;;;;;;5.10;2.80;;;;;;;;;;5026590;28;20043;-77
2022/08/19 01:07:58;;;;;;;7.50;3.22;;;;;;;;;;5066294;28;20037;-77
2022/08/19 01:10:24;;;;;;;6.75;3.60;;;;;;;;;;5033092;28;20492;-78
2022/08/19 01:12:50;;;;;;;5.70;3.08;;;;;;;;;;5033430;28;20039;-77
2022/08/19 01:15:16;;;;;;;9.13;3.38;;;;;;;;;;5033581;28;20021;-78
2022/08/19 01:17:42;;;;;;;9.65;3.20;;;;;;;;;;5015322;28;20589;-78
2022/08/19 01:20:11;;;;;;;9.85;3.28;;;;;;;;;;5031864;28;20037;-78
2022/08/19 01:22:37;;;;;;;7.43;3.10;;;;;;;;;;5032490;28;20407;-78
2022/08/19 01:25:02;;;;;;;5.55;3.08;;;;;;;;;;5032855;28;20033;-78
2022/08/19 01:27:36;;;;;;;7.97;3.08;;;;;;;;;;5032395;28;20045;-78
2022/08/19 01:30:03;;;;;;;8.65;3.70;;;;;;;;;;5012775;28;20036;-78
2022/08/19 01:32:30;;;;;;;5.32;3.33;;;;;;;;;;5046059;28;20021;-78
2022/08/19 01:34:55;;;;;;;7.35;3.30;;;;;;;;;;5031679;28;20040;-78
2022/08/19 01:37:21;;;;;;;7.93;3.05;;;;;;;;;;5031783;28;20421;-78
2022/08/19 01:39:46;;;;;;;7.75;3.63;;;;;;;;;;5032733;28;20041;-78
2022/08/19 01:42:12;;;;;;;8.32;3.53;;;;;;;;;;5033383;28;20112;-77
2022/08/19 01:44:39;;;;;;;7.95;2.97;;;;;;;;;;5043813;28;20032;-77
2022/08/19 01:47:04;;;;;;;12.07;3.42;;;;;;;;;;5040946;28;20045;-78
2022/08/19 01:49:30;;;;;;;7.00;3.25;;;;;;;;;;5045590;28;20033;-77
2022/08/19 01:51:55;;;;;;;9.40;3.55;;;;;;;;;;5040353;28;20027;-78
2022/08/19 01:54:21;;;;;;;10.05;3.50;;;;;;;;;;5040958;28;20476;-77
2022/08/19 01:56:47;;;;;;;6.50;3.30;;;;;;;;;;4997155;28;20029;-77
2022/08/19 01:59:14;;;;;;;8.68;3.10;;;;;;;;;;5039749;28;20035;-77
2022/08/19 02:01:40;;;;;;;6.22;3.30;;;;;;;;;;5041949;28;20026;-77
2022/08/19 02:04:05;;;;;;;9.05;3.25;;;;;;;;;;5032799;28;20392;-77
2022/08/19 02:06:31;;;;;;;10.70;3.13;;;;;;;;;;5032112;28;20033;-78
2022/08/19 02:08:57;;;;;;;8.77;3.28;;;;;;;;;;5032409;28;20040;-77
2022/08/19 02:11:23;;;;;;;6.22;3.33;;;;;;;;;;5035911;28;20507;-77
2022/08/19 02:13:49;;;;;;;4.90;2.83;;;;;;;;;;5051673;28;20472;-78
2022/08/19 02:16:16;;;;;;;7.45;2.90;;;;;;;;;;5013363;28;20117;-78
2022/08/19 02:18:41;;;;;;;5.93;3.28;;;;;;;;;;5038785;28;20072;-78
2022/08/19 02:21:07;;;;;;;6.82;3.05;;;;;;;;;;5032622;28;20496;-77
2022/08/19 02:23:32;;;;;;;6.18;3.17;;;;;;;;;;5032431;28;20077;-78
2022/08/19 02:25:58;;;;;;;8.90;2.90;;;;;;;;;;5032674;28;20033;-78
2022/08/19 02:28:23;;;;;;;5.20;3.30;;;;;;;;;;5032224;28;20105;-79
2022/08/19 02:30:49;;;;;;;5.40;3.10;;;;;;;;;;5031109;28;20014;-78
2022/08/19 02:33:14;;;;;;;9.07;3.30;;;;;;;;;;5031062;28;20045;-77
2022/08/19 02:35:46;;;;;;;12.45;5.75;;;;;;;;;;5023107;28;20057;-78
2022/08/19 02:38:27;;;;;;;6.30;3.33;;;;;;;;;;5031895;28;20558;-79
2022/08/19 02:40:53;;;;;;;7.20;3.22;;;;;;;;;;5025367;28;20041;-78
2022/08/19 02:43:22;;;;;;;7.15;2.95;;;;;;;;;;5013000;28;20073;-78
2022/08/19 02:45:51;;;;;;;7.10;3.20;;;;;;;;;;5025957;28;20068;-79
2022/08/19 02:48:17;;;;;;;8.82;3.50;;;;;;;;;;5033329;28;20033;-79
2022/08/19 02:50:43;;;;;;;8.93;3.58;;;;;;;;;;5031190;28;20057;-79
2022/08/19 02:53:08;;;;;;;7.80;3.58;;;;;;;;;;5032744;28;20115;-79
2022/08/19 02:55:34;;;;;;;7.50;3.72;;;;;;;;;;5014111;28;20492;-78
2022/08/19 02:57:59;;;;;;;9.13;4.03;;;;;;;;;;5032284;28;20120;-79
2022/08/19 03:00:26;;;;;;;9.65;3.97;;;;;;;;;;5032400;28;20396;-78
2022/08/19 03:02:51;;;;;;;7.75;3.63;;;;;;;;;;5038635;28;20025;-79
2022/08/19 03:05:17;;;;;;;7.20;3.85;;;;;;;;;;5043600;28;20538;-78
2022/08/19 03:07:42;;;;;;;9.00;4.78;;;;;;;;;;5043842;28;20037;-79
2022/08/19 03:10:08;;;;;;;12.65;4.30;;;;;;;;;;5042659;28;20504;-79
2022/08/19 03:12:37;;;;;;;8.70;4.53;;;;;;;;;;5044741;28;20807;-78
2022/08/19 03:15:03;;;;;;;6.47;4.00;;;;;;;;;;5044824;28;20040;-79
2022/08/19 03:17:29;;;;;;;6.60;4.38;;;;;;;;;;5033823;28;20511;-79
2022/08/19 03:19:54;;;;;;;7.03;3.80;;;;;;;;;;5034838;28;20030;-79
2022/08/19 03:22:19;;;;;;;11.20;4.13;;;;;;;;;;5035210;28;20117;-79
2022/08/19 03:24:45;;;;;;;7.30;3.70;;;;;;;;;;5035215;28;20041;-79
2022/08/19 03:27:10;;;;;;;9.55;3.88;;;;;;;;;;5036511;28;20075;-78
2022/08/19 03:29:37;;;;;;;9.20;3.92;;;;;;;;;;5037812;28;20041;-78
2022/08/19 03:32:02;;;;;;;9.38;3.97;;;;;;;;;;5023645;28;20021;-79
2022/08/19 03:34:28;;;;;;;10.00;3.70;;;;;;;;;;5033555;28;20072;-79
2022/08/19 03:36:55;;;;;;;7.75;4.28;;;;;;;;;;5035650;28;20088;-79
2022/08/19 03:39:20;;;;;;;7.97;3.88;;;;;;;;;;5037855;28;20033;-79
2022/08/19 03:41:46;;;;;;;7.35;3.30;;;;;;;;;;5035917;28;20120;-79
2022/08/19 03:44:12;;;;;;;6.60;3.50;;;;;;;;;;5036320;28;20480;-79
2022/08/19 03:46:38;;;;;;;6.85;4.00;;;;;;;;;;5038163;28;20025;-79
2022/08/19 03:49:06;;;;;;;7.13;3.63;;;;;;;;;;5036555;28;20488;-78
2022/08/19 03:51:34;;;;;;;9.38;4.00;;;;;;;;;;5036017;28;20143;-78
2022/08/19 03:54:00;;;;;;;9.23;3.90;;;;;;;;;;5017146;28;20037;-78
2022/08/19 03:56:27;;;;;;;6.45;3.40;;;;;;;;;;5033841;28;20028;-78
2022/08/19 03:58:53;;;;;;;8.98;3.38;;;;;;;;;;5016863;28;20412;-79
2022/08/19 04:01:19;;;;;;;8.77;4.10;;;;;;;;;;5038559;28;20037;-79
2022/08/19 04:03:46;;;;;;;8.00;4.00;;;;;;;;;;5046904;28;20037;-79
2022/08/19 04:06:18;;;;;;;6.75;3.88;;;;;;;;;;5035905;28;20053;-79
2022/08/19 04:08:45;;;;;;;9.48;4.05;;;;;;;;;;5036551;28;20045;-78
2022/08/19 04:11:11;;;;;;;6.60;3.90;;;;;;;;;;5034056;28;20075;-80
2022/08/19 04:13:36;;;;;;;6.47;3.88;;;;;;;;;;5036350;28;20103;-78
2022/08/19 04:16:02;;;;;;;7.32;3.35;;;;;;;;;;5033003;28;20033;-78
2022/08/19 04:18:29;;;;;;;6.38;3.70;;;;;;;;;;5033996;28;20033;-78
2022/08/19 04:20:55;;;;;;;6.72;3.72;;;;;;;;;;5034862;28;20029;-78
2022/08/19 04:23:20;;;;;;;5.95;4.00;;;;;;;;;;5027805;28;20546;-79
2022/08/19 04:25:45;;;;;;;8.27;3.83;;;;;;;;;;5033414;28;20029;-79
2022/08/19 04:28:11;;;;;;;7.55;4.00;;;;;;;;;;5047329;28;20487;-78
2022/08/19 04:30:44;;;;;;;8.18;3.70;;;;;;;;;;5031919;28;20036;-77
2022/08/19 04:33:13;;;;;;;8.65;3.50;;;;;;;;;;5034064;28;20104;-78
2022/08/19 04:36:00;;;;;;;6.82;3.53;;;;;;;;;;5035616;28;20057;-78
2022/08/19 04:38:25;;;;;;;7.68;3.85;;;;;;;;;;5034883;28;20057;-79
2022/08/19 04:43:36;;;;;;;7.80;3.40;;;;;;;;;;5035929;28;20065;-78
2022/08/19 04:46:05;;;;;;;6.22;3.58;;;;;;;;;;5035850;28;20079;-78
2022/08/19 04:48:31;;;;;;;6.75;3.53;;;;;;;;;;5037680;28;20052;-78
2022/08/19 04:50:57;;;;;;;8.02;3.80;;;;;;;;;;5034893;28;20030;-78
2022/08/19 04:53:28;;;;;;;8.50;3.50;;;;;;;;;;5035030;28;20029;-78
2022/08/19 04:55:54;;;;;;;6.43;4.13;;;;;;;;;;5032979;28;20357;-78
2022/08/19 04:58:19;;;;;;;8.93;3.75;;;;;;;;;;5036287;28;20052;-78
2022/08/19 05:00:45;;;;;;;11.00;3.95;;;;;;;;;;5036247;28;20029;-78
2022/08/19 05:03:10;;;;;;;9.00;3.72;;;;;;;;;;5033422;28;20029;-78
2022/08/19 05:05:40;;;;;;;6.88;3.63;;;;;;;;;;5032132;28;20029;-79
2022/08/19 05:08:06;;;;;;;9.50;3.80;;;;;;;;;;5033003;28;20040;-79
2022/08/19 05:10:34;;;;;;;8.18;4.35;;;;;;;;;;5033312;28;20025;-78
2022/08/19 05:13:00;;;;;;;8.63;4.40;;;;;;;;;;5034142;28;20044;-78
2022/08/19 05:15:26;;;;;;;9.00;4.10;;;;;;;;;;5033712;28;20092;-80
2022/08/19 05:23:23;;;;;;;7.43;4.18;;;;;;;;;;5034023;28;20481;-79
2022/08/19 05:25:50;;;;;;;7.80;4.72;;;;;;;;;;5034789;28;20024;-79
2022/08/19 05:28:15;;;;;;;9.57;5.22;;;;;;;;;;5032114;28;20045;-79
2022/08/19 05:30:43;;;;;;;8.00;5.03;;;;;;;;;;5013842;28;20014;-79
2022/08/19 05:33:11;;;;;;;6.68;4.70;;;;;;;;;;5033405;28;20107;-80
2022/08/19 05:35:37;;;;;;;11.75;7.38;;;;;;;;;;5035024;28;20017;-80
2022/08/19 05:38:03;;;;;;;8.50;5.45;;;;;;;;;;5021459;28;20145;-78
2022/08/19 05:40:28;;;;;;;8.10;5.13;;;;;;;;;;5008992;28;20033;-79
2022/08/19 05:42:53;;;;;;;10.60;5.22;;;;;;;;;;5045073;28;20064;-78
2022/08/19 05:45:20;;;;;;;7.43;4.78;;;;;;;;;;5007101;28;20025;-80
2022/08/19 05:47:48;;;;;;;7.25;4.50;;;;;;;;;;5038677;28;20033;-79
2022/08/19 05:50:14;;;;;;;10.57;4.68;;;;;;;;;;5032831;28;20068;-77
2022/08/19 05:52:39;;;;;;;7.90;4.43;;;;;;;;;;5032466;28;20461;-77
2022/08/19 05:55:05;;;;;;;9.63;5.22;;;;;;;;;;5032164;28;20400;-78
2022/08/19 05:57:31;;;;;;;10.18;5.25;;;;;;;;;;5016094;28;20025;-81
2022/08/19 05:59:57;;;;;;;9.18;5.50;;;;;;;;;;5033923;28;20033;-80
2022/08/19 06:02:22;;;;;;;8.23;4.82;;;;;;;;;;5002096;28;20040;-77
2022/08/19 06:04:49;;;;;;;11.10;5.15;;;;;;;;;;5017314;28;20025;-79
2022/08/19 06:07:15;;;;;;;6.20;4.75;;;;;;;;;;5034712;28;20087;-80
2022/08/19 06:09:40;;;;;;;9.73;6.00;;;;;;;;;;5045757;28;20488;-79
2022/08/19 06:12:06;;;;;;;8.65;5.63;;;;;;;;;;5047737;28;20037;-77
2022/08/19 06:14:32;;;;;;;7.75;5.38;;;;;;;;;;5021099;28;20093;-81
2022/08/19 06:17:01;;;;;;;12.52;5.47;;;;;;;;;;5031303;28;20040;-78
2022/08/19 06:19:29;;;;;;;9.00;5.88;;;;;;;;;;5026701;28;20029;-79
2022/08/19 06:21:55;;;;;;;9.68;5.50;;;;;;;;;;5031760;28;20052;-79
2022/08/19 06:24:23;;;;;;;9.18;5.60;;;;;;;;;;5029944;28;20492;-78
2022/08/19 06:26:48;;;;;;;8.43;5.15;;;;;;;;;;5057029;28;20060;-79
2022/08/19 06:29:15;;;;;;;9.45;5.03;;;;;;;;;;5028765;28;20121;-80
2022/08/19 06:31:42;;;;;;;10.10;5.72;;;;;;;;;;5055744;28;20033;-80
2022/08/19 06:34:07;;;;;;;10.07;5.65;;;;;;;;;;5036424;28;20391;-81
2022/08/19 06:36:34;;;;;;;8.27;4.50;;;;;;;;;;5043953;28;20087;-82
2022/08/19 06:39:18;;;;;;;10.93;4.97;;;;;;;;;;5017098;28;20069;-83
2022/08/19 06:41:45;;;;;;;9.20;4.47;;;;;;;;;;5038598;28;20039;-82
2022/08/19 06:44:15;;;;;;;9.48;5.68;;;;;;;;;;5027664;28;20025;-82
2022/08/19 06:46:41;;;;;;;11.18;4.93;;;;;;;;;;5044429;28;20087;-79
2022/08/19 06:49:13;;;;;;;10.95;4.95;;;;;;;;;;5042940;28;20439;-79
2022/08/19 06:51:43;;;;;;;9.13;5.50;;;;;;;;;;5035091;28;20056;-79
2022/08/19 06:54:08;;;;;;;7.05;4.93;;;;;;;;;;5027195;28;20036;-79
2022/08/19 06:56:34;;;;;;;10.23;5.88;;;;;;;;;;5050669;28;20041;-79
2022/08/19 06:59:04;;;;;;;13.90;6.82;;;;;;;;;;5029086;28;20525;-82
2022/08/19 07:01:29;;;;;;;12.52;6.32;;;;;;;;;;5052318;28;20481;-79
2022/08/19 07:03:56;;;;;;;11.55;6.88;;;;;;;;;;5048955;28;20028;-80
2022/08/19 07:06:21;;;;;;;9.18;6.90;;;;;;;;;;5049236;28;20467;-79
2022/08/19 07:08:47;;;;;;;15.68;8.07;;;;;;;;;;5060357;28;20025;-81
2022/08/19 07:11:13;;;;;;;13.75;7.72;;;;;;;;;;5035927;28;20036;-78
2022/08/19 07:13:38;;;;;;;13.95;8.35;;;;;;;;;;5045990;28;20026;-79
2022/08/19 07:16:05;;;;;;;15.32;8.85;;;;;;;;;;5053570;28;20063;-79
2022/08/19 07:18:30;;;;;;;17.25;10.10;;;;;;;;;;5048571;28;20070;-80
2022/08/19 07:21:07;;;;;;;15.45;10.55;;;;;;;;;;5013604;28;20029;-79
2022/08/19 07:23:33;;;;;;;16.42;12.25;;;;;;;;;;5026592;28;20041;-80
2022/08/19 07:26:04;;;;;;;16.45;12.15;;;;;;;;;;5019492;28;20025;-79
2022/08/19 07:28:30;;;;;;;19.20;11.98;;;;;;;;;;5036035;28;20067;-79
2022/08/19 07:30:55;;;;;;;18.20;13.80;;;;;;;;;;5037828;28;20030;-79
2022/08/19 07:33:21;;;;;;;17.15;13.32;;;;;;;;;;5036573;28;20159;-79
2022/08/19 07:35:46;;;;;;;20.95;13.70;;;;;;;;;;5035953;28;20032;-80
2022/08/19 07:38:12;;;;;;;25.60;14.45;;;;;;;;;;5051207;28;20053;-80
2022/08/19 07:40:37;;;;;;;20.90;13.77;;;;;;;;;;5035250;28;20045;-79
2022/08/19 07:43:02;;;;;;;19.75;13.70;;;;;;;;;;5041157;28;20038;-79
2022/08/19 07:45:28;;;;;;;20.77;14.15;;;;;;;;;;5025371;28;20395;-79
2022/08/19 07:47:54;;;;;;;20.90;14.88;;;;;;;;;;5042744;28;20029;-83
2022/08/19 07:50:19;;;;;;;19.73;14.82;;;;;;;;;;5034860;28;20043;-79
2022/08/19 07:52:45;;;;;;;17.98;13.18;;;;;;;;;;5049951;28;20086;-78
2022/08/19 07:55:10;;;;;;;17.90;14.13;;;;;;;;;;5035029;28;20024;-82
2022/08/19 07:57:36;;;;;;;21.58;13.93;;;;;;;;;;5018761;28;20032;-82
2022/08/19 08:00:03;;;;;;;19.55;13.40;;;;;;;;;;5015127;28;20028;-82
2022/08/19 08:02:38;;;;;;;18.10;12.73;;;;;;;;;;5040380;28;20044;-78
2022/08/19 08:10:33;;;;;;;14.30;10.63;;;;;;;;;;5045112;28;20033;-79
2022/08/19 08:12:58;;;;;;;21.25;10.85;;;;;;;;;;5040826;28;20124;-80
2022/08/19 08:15:24;;;;;;;15.90;9.95;;;;;;;;;;5029866;28;20094;-79
2022/08/19 08:17:49;;;;;;;13.40;8.88;;;;;;;;;;5040547;28;20079;-80
2022/08/19 08:20:15;;;;;;;11.45;8.45;;;;;;;;;;5064207;28;20021;-81
2022/08/19 08:25:31;;;;;;;11.20;8.07;;;;;;;;;;5031463;28;20029;-80
2022/08/19 08:27:59;;;;;;;11.52;7.18;;;;;;;;;;5046032;28;20028;-80
2022/08/19 08:30:25;;;;;;;12.85;6.97;;;;;;;;;;5023533;28;20037;-80
2022/08/19 08:32:50;;;;;;;10.82;6.38;;;;;;;;;;5020031;28;20021;-80
2022/08/19 08:35:17;;;;;;;11.82;6.95;;;;;;;;;;5026059;28;20037;-81
2022/08/19 08:37:46;;;;;;;11.80;7.00;;;;;;;;;;5040084;28;20411;-79
2022/08/19 08:40:11;;;;;;;10.13;6.82;;;;;;;;;;5007177;28;20055;-81
2022/08/19 08:42:37;;;;;;;15.43;10.82;;;;;;;;;;5036582;28;20017;-80
2022/08/19 08:45:04;;;;;;;11.23;7.10;;;;;;;;;;5049923;28;20040;-81
2022/08/19 08:47:31;;;;;;;8.77;6.70;;;;;;;;;;5031341;28;20022;-82
2022/08/19 08:50:10;;;;;;;9.18;6.78;;;;;;;;;;5012200;28;20040;-82
2022/08/19 08:52:38;;;;;;;9.75;5.70;;;;;;;;;;5046658;28;20033;-80
2022/08/19 08:55:05;;;;;;;9.30;6.18;;;;;;;;;;5030188;28;20060;-80
2022/08/19 08:57:32;;;;;;;11.63;6.35;;;;;;;;;;5040530;28;20500;-81
2022/08/19 08:59:58;;;;;;;9.55;5.75;;;;;;;;;;5050248;28;20430;-80
2022/08/19 09:02:23;;;;;;;12.63;5.75;;;;;;;;;;5014174;28;20522;-79
2022/08/19 09:04:49;;;;;;;10.45;7.03;;;;;;;;;;5044783;28;20021;-78
2022/08/19 09:07:33;;;;;;;9.48;5.55;;;;;;;;;;5027370;28;20137;-79
2022/08/19 09:10:04;;;;;;;7.72;5.55;;;;;;;;;;5041910;28;20033;-79
2022/08/19 09:12:35;;;;;;;9.05;6.03;;;;;;;;;;5031196;28;20040;-81
2022/08/19 09:15:05;;;;;;;8.60;5.78;;;;;;;;;;5031981;28;20115;-81
2022/08/19 09:17:30;;;;;;;8.65;5.35;;;;;;;;;;5025636;28;20037;-82
2022/08/19 09:19:56;;;;;;;7.60;5.32;;;;;;;;;;5028540;28;20039;-80
2022/08/19 09:22:21;;;;;;;9.98;5.70;;;;;;;;;;5041539;28;20017;-79
2022/08/19 09:24:48;;;;;;;9.55;5.57;;;;;;;;;;5037341;28;20033;-79
2022/08/19 09:27:13;;;;;;;9.18;5.10;;;;;;;;;;5042843;28;20027;-77
2022/08/19 09:29:39;;;;;;;9.57;5.80;;;;;;;;;;5045579;28;20128;-80
2022/08/19 09:32:04;;;;;;;9.98;5.68;;;;;;;;;;5032365;28;20078;-79
2022/08/19 09:34:31;;;;;;;9.55;5.10;;;;;;;;;;5043371;28;20036;-79
2022/08/19 09:36:58;;;;;;;9.65;5.80;;;;;;;;;;5046781;28;20056;-78
2022/08/19 09:39:24;;;;;;;10.18;6.10;;;;;;;;;;5043231;28;20033;-80
2022/08/19 09:41:49;;;;;;;10.02;5.35;;;;;;;;;;5046892;28;20024;-80
2022/08/19 09:44:15;;;;;;;7.22;5.78;;;;;;;;;;5043340;28;20043;-79
2022/08/19 09:46:40;;;;;;;8.75;5.43;;;;;;;;;;5042324;28;20440;-80
2022/08/19 09:49:06;;;;;;;11.82;5.32;;;;;;;;;;5042227;28;20037;-80
2022/08/19 09:51:31;;;;;;;10.48;5.60;;;;;;;;;;5046469;28;20027;-80
2022/08/19 09:54:01;;;;;;;8.85;5.63;;;;;;;;;;5055421;28;20052;-81
2022/08/19 09:56:26;;;;;;;9.45;5.68;;;;;;;;;;5027076;28;20044;-80
2022/08/19 09:58:52;;;;;;;9.68;5.18;;;;;;;;;;5034471;28;20037;-81
2022/08/19 10:01:21;;;;;;;10.73;5.50;;;;;;;;;;5020827;28;20183;-80
2022/08/19 10:03:47;;;;;;;10.15;5.85;;;;;;;;;;5029703;28;20036;-80
2022/08/19 10:06:13;;;;;;;8.00;5.15;;;;;;;;;;5045354;28;20022;-82
2022/08/19 10:08:39;;;;;;;7.80;5.40;;;;;;;;;;5041490;28;20026;-82
2022/08/19 10:11:05;;;;;;;7.60;5.82;;;;;;;;;;5049881;28;20534;-82
2022/08/19 10:13:31;;;;;;;9.98;5.68;;;;;;;;;;5030901;28;20121;-80
2022/08/19 10:16:02;;;;;;;8.57;5.55;;;;;;;;;;5072071;28;20044;-80
2022/08/19 10:18:27;;;;;;;6.68;5.60;;;;;;;;;;5040474;28;20411;-81
2022/08/19 10:20:59;;;;;;;9.02;5.88;;;;;;;;;;5052149;28;20021;-80
2022/08/19 10:23:25;;;;;;;8.98;5.72;;;;;;;;;;5036413;28;20508;-77
2022/08/19 10:25:53;;;;;;;9.57;5.80;;;;;;;;;;5043447;28;20026;-82
2022/08/19 10:28:18;;;;;;;8.63;5.85;;;;;;;;;;5052997;28;20037;-82
2022/08/19 10:30:44;;;;;;;9.88;5.70;;;;;;;;;;5016891;28;20028;-82
2022/08/19 10:33:09;;;;;;;12.73;6.22;;;;;;;;;;5049153;28;20022;-82
2022/08/19 10:35:37;;;;;;;9.57;5.88;;;;;;;;;;5032947;28;20032;-80
2022/08/19 10:38:03;;;;;;;11.95;5.88;;;;;;;;;;5021157;28;20139;-81
2022/08/19 10:40:28;;;;;;;9.23;5.65;;;;;;;;;;5030141;28;20079;-80
2022/08/19 10:42:55;;;;;;;12.40;6.22;;;;;;;;;;5027525;28;20051;-81
2022/08/19 10:45:25;;;;;;;12.70;6.45;;;;;;;;;;5022225;28;20055;-84
2022/08/19 10:47:50;;;;;;;8.88;5.60;;;;;;;;;;5045107;28;20061;-81
2022/08/19 10:53:05;;;;;;;11.02;6.78;;;;;;;;;;5039559;28;20083;-81
2022/08/19 10:58:16;;;;;;;11.45;6.60;;;;;;;;;;5041403;28;20096;-82
2022/08/19 11:00:43;;;;;;;12.20;5.95;;;;;;;;;;5024941;28;20029;-83
2022/08/19 11:03:09;;;;;;;10.02;6.50;;;;;;;;;;5040251;28;20041;-82
2022/08/19 11:05:35;;;;;;;14.63;6.65;;;;;;;;;;5030660;28;20443;-84
2022/08/19 11:08:00;;;;;;;12.15;6.57;;;;;;;;;;5046117;28;20092;-83
2022/08/19 11:10:26;;;;;;;11.27;6.70;;;;;;;;;;5048571;28;20021;-85
2022/08/19 11:12:55;;;;;;;11.43;7.07;;;;;;;;;;5066432;28;20036;-85
2022/08/19 11:15:23;;;;;;;11.48;6.68;;;;;;;;;;5050255;28;20124;-87
2022/08/19 11:17:54;;;;;;;12.43;7.63;;;;;;;;;;5033602;28;20040;-85
2022/08/19 11:20:19;;;;;;;11.55;7.60;;;;;;;;;;5036783;28;20101;-83
2022/08/19 11:22:48;;;;;;;10.85;7.40;;;;;;;;;;5017239;28;20025;-86
2022/08/19 11:25:14;;;;;;;15.98;8.65;;;;;;;;;;5033247;28;20032;-86
2022/08/19 11:27:42;;;;;;;13.38;8.10;;;;;;;;;;5031778;28;20048;-82
2022/08/19 11:30:11;;;;;;;11.45;7.90;;;;;;;;;;5024560;28;20030;-86
2022/08/19 11:32:39;;;;;;;12.18;8.27;;;;;;;;;;5030579;28;20057;-84
2022/08/19 11:35:05;;;;;;;13.70;8.60;;;;;;;;;;5031982;28;20060;-86
2022/08/19 11:37:30;;;;;;;14.88;9.00;;;;;;;;;;5017328;28;20060;-83
2022/08/19 11:39:59;;;;;;;14.25;8.38;;;;;;;;;;5032216;28;20061;-81
2022/08/19 11:45:10;;;;;;;13.82;8.48;;;;;;;;;;5070535;28;20053;-84
2022/08/19 11:47:36;;;;;;;11.90;8.15;;;;;;;;;;5039455;28;20028;-84
2022/08/19 11:50:02;;;;;;;14.75;8.48;;;;;;;;;;5042171;28;20036;-82
2022/08/19 11:52:29;;;;;;;11.20;8.52;;;;;;;;;;5041357;28;20079;-84
2022/08/19 11:54:55;;;;;;;12.73;8.70;;;;;;;;;;5039071;28;20037;-86
2022/08/19 11:57:20;;;;;;;13.10;8.75;;;;;;;;;;5021768;28;20143;-83
2022/08/19 11:59:50;;;;;;;14.32;8.35;;;;;;;;;;5030721;28;20033;-85
2022/08/19 12:02:15;;;;;;;18.10;8.70;;;;;;;;;;5057188;28;20048;-83
2022/08/19 12:04:41;;;;;;;12.75;8.77;;;;;;;;;;5044438;28;20029;-83
2022/08/19 12:07:06;;;;;;;11.55;8.45;;;;;;;;;;5021576;28;20036;-81
2022/08/19 12:09:34;;;;;;;10.32;8.20;;;;;;;;;;5049984;28;20041;-84
2022/08/19 12:12:00;;;;;;;14.00;7.90;;;;;;;;;;5042148;28;20017;-82
2022/08/19 12:14:27;;;;;;;14.45;7.70;;;;;;;;;;5053795;28;20033;-80
2022/08/19 12:16:53;;;;;;;13.95;8.20;;;;;;;;;;5071613;28;20032;-81
2022/08/19 12:19:18;;;;;;;14.82;8.40;;;;;;;;;;5054566;28;20046;-81
2022/08/19 12:21:44;;;;;;;12.65;7.80;;;;;;;;;;5037649;28;20052;-80
2022/08/19 12:24:10;;;;;;;8.98;7.97;;;;;;;;;;5039695;28;20029;-81
2022/08/19 12:26:36;;;;;;;11.48;8.32;;;;;;;;;;5024959;28;20383;-81
2022/08/19 12:29:01;;;;;;;11.45;8.80;;;;;;;;;;5050860;28;20041;-80
2022/08/19 12:31:28;;;;;;;10.95;8.02;;;;;;;;;;5036446;28;20025;-82
2022/08/19 12:33:53;;;;;;;14.43;7.35;;;;;;;;;;5047625;28;20025;-82
2022/08/19 12:36:19;;;;;;;10.95;7.20;;;;;;;;;;5052860;28;20033;-81
2022/08/19 12:38:44;;;;;;;18.65;7.47;;;;;;;;;;5045931;28;20053;-82
2022/08/19 12:41:11;;;;;;;12.57;7.72;;;;;;;;;;5031644;28;20495;-82
2022/08/19 12:43:37;;;;;;;10.27;7.25;;;;;;;;;;5046330;28;20411;-80
2022/08/19 12:46:04;;;;;;;8.75;7.40;;;;;;;;;;5071392;28;20036;-81
2022/08/19 12:48:29;;;;;;;12.10;8.40;;;;;;;;;;5044960;28;20041;-82
2022/08/19 12:50:55;;;;;;;13.38;8.95;;;;;;;;;;5055649;28;20481;-82
2022/08/19 12:53:20;;;;;;;15.60;9.00;;;;;;;;;;5051681;28;20044;-81
2022/08/19 12:55:46;;;;;;;13.18;8.90;;;;;;;;;;5042440;28;20025;-81
2022/08/19 12:58:12;;;;;;;15.93;9.90;;;;;;;;;;5032238;28;20033;-80
2022/08/19 13:00:37;;;;;;;17.83;11.43;;;;;;;;;;5028242;28;20143;-81
2022/08/19 13:03:03;;;;;;;16.70;11.82;;;;;;;;;;5025604;28;20044;-83
2022/08/19 13:05:30;;;;;;;17.48;14.25;;;;;;;;;;5045551;28;20025;-82
2022/08/19 13:07:56;;;;;;;19.60;14.68;;;;;;;;;;5049707;28;20116;-82
2022/08/19 13:10:22;;;;;;;20.60;15.35;;;;;;;;;;5025579;28;20021;-81
2022/08/19 13:12:48;;;;;;;22.15;15.15;;;;;;;;;;5040922;28;20035;-82
2022/08/19 13:15:14;;;;;;;22.45;15.98;;;;;;;;;;5052713;28;20031;-80
2022/08/19 13:17:40;;;;;;;21.02;16.33;;;;;;;;;;5035294;28;20025;-83
2022/08/19 13:20:10;;;;;;;19.88;16.23;;;;;;;;;;5031293;28;20479;-78
2022/08/19 13:22:35;;;;;;;21.73;17.25;;;;;;;;;;5048495;28;20037;-81
2022/08/19 13:25:01;;;;;;;20.52;16.02;;;;;;;;;;5050967;28;20564;-79
2022/08/19 13:27:27;;;;;;;21.15;15.85;;;;;;;;;;5049268;28;20518;-80
2022/08/19 13:35:21;;;;;;;22.30;16.65;;;;;;;;;;5045670;28;20035;-80
2022/08/19 13:37:46;;;;;;;21.90;16.27;;;;;;;;;;5029583;28;20503;-80
2022/08/19 13:40:17;;;;;;;21.35;17.05;;;;;;;;;;5045799;28;20033;-81
2022/08/19 13:42:46;;;;;;;24.95;18.60;;;;;;;;;;5037318;28;20120;-78
2022/08/19 13:45:11;;;;;;;21.77;18.08;;;;;;;;;;5042535;28;20519;-81
2022/08/19 13:47:42;;;;;;;22.40;18.55;;;;;;;;;;5027356;28;20028;-82
2022/08/19 13:50:08;;;;;;;22.40;18.45;;;;;;;;;;5042576;28;20041;-82
2022/08/19 13:52:34;;;;;;;23.73;18.42;;;;;;;;;;5023087;28;20025;-81
2022/08/19 13:54:59;;;;;;;21.45;18.27;;;;;;;;;;5041078;28;20087;-82
2022/08/19 13:57:25;;;;;;;21.95;18.85;;;;;;;;;;5042086;28;20021;-82
2022/08/19 13:59:50;;;;;;;26.45;19.35;;;;;;;;;;5046152;28;20044;-81
2022/08/19 14:02:16;;;;;;;27.15;18.98;;;;;;;;;;5043068;28;20044;-82
2022/08/19 14:04:41;;;;;;;26.73;19.63;;;;;;;;;;5040957;28;20037;-79
2022/08/19 14:07:07;;;;;;;26.05;20.52;;;;;;;;;;5041595;28;20409;-81
2022/08/19 14:09:32;;;;;;;26.10;20.33;;;;;;;;;;5043757;28;20124;-81
2022/08/19 14:11:58;;;;;;;23.33;20.80;;;;;;;;;;5040493;28;20032;-80
2022/08/19 14:14:23;;;;;;;26.38;21.27;;;;;;;;;;5039167;28;20051;-82
2022/08/19 14:16:49;;;;;;;25.48;20.48;;;;;;;;;;5029073;28;20443;-82
2022/08/19 14:19:14;;;;;;;27.63;22.13;;;;;;;;;;5028909;28;20037;-82
2022/08/19 14:21:40;;;;;;;25.73;20.52;;;;;;;;;;5010596;28;20154;-81
2022/08/19 14:24:06;;;;;;;24.58;20.88;;;;;;;;;;5044955;28;20033;-80
2022/08/19 14:26:31;;;;;;;25.52;20.13;;;;;;;;;;5027405;28;20070;-81
2022/08/19 14:28:57;;;;;;;25.15;20.13;;;;;;;;;;5046732;28;20044;-81
2022/08/19 14:31:23;;;;;;;22.08;18.15;;;;;;;;;;5010934;28;20461;-82
2022/08/19 14:33:50;;;;;;;21.60;17.77;;;;;;;;;;5031107;28;20021;-81
2022/08/19 14:36:15;;;;;;;21.13;17.60;;;;;;;;;;5026301;28;20026;-80
2022/08/19 14:38:41;;;;;;;20.83;15.45;;;;;;;;;;5028548;28;20061;-81
2022/08/19 14:41:16;;;;;;;14.90;12.70;;;;;;;;;;5042053;28;20033;-80
2022/08/19 14:43:42;;;;;;;15.87;11.47;;;;;;;;;;5030538;28;20053;-80
2022/08/19 14:46:07;;;;;;;15.98;8.80;;;;;;;;;;5028156;28;20272;-79
2022/08/19 14:48:33;;;;;;;13.27;6.43;;;;;;;;;;5029039;28;20381;-82
2022/08/19 14:50:58;;;;;;;10.90;5.20;;;;;;;;;;5030035;28;20028;-82
2022/08/19 14:53:24;;;;;;;11.60;5.80;;;;;;;;;;5039005;28;20033;-81
2022/08/19 14:55:50;;;;;;;9.50;4.65;;;;;;;;;;5044299;28;20111;-81
2022/08/19 14:58:15;;;;;;;9.60;4.50;;;;;;;;;;5026093;28;20060;-79
2022/08/19 15:00:40;;;;;;;11.30;4.68;;;;;;;;;;5060404;28;20049;-81